Long Hua — VRFR5 — position and weather

sailwx.info

Track history (hours):
 
Tides and Currents Weather Stations Pressure Air Temp Water Temp Dewpoint Dewpoint Depression Visibility Wind Speed Wind Dir Waves Ship Positions

Long Hua

Last reported at 2016-Feb-06 22:33 UTC. Time now 2016-Feb-06 23:24 UTC.
Position N 24°21' E 118°10'.

Length 180 m; draft 6 m.

MMSI: 477622800.

Date/timePositionNaut miles runAvg speedWind from/ knotsBaromVisibWave heightAir tempDewpointWater temp
2016-Feb-06 22:33N 24°21' E 118°10'0 0.1
2016-Feb-06 21:27N 24°21' E 118°10'0 0.0
2016-Feb-06 20:33N 24°21' E 118°10'0 0.0
2016-Feb-06 19:15N 24°21' E 118°10'0 0.0
2016-Feb-06 18:33N 24°21' E 118°10'0 0.0
2016-Feb-06 17:21N 24°21' E 118°10'0 0.0
2016-Feb-06 16:33N 24°21' E 118°10'0 0.1
2016-Feb-06 15:33N 24°21' E 118°10'0 0.0
2016-Feb-06 09:21N 24°21' E 118°10'0 0.0
2016-Feb-06 08:33N 24°21' E 118°10'0 0.0
2016-Feb-06 07:21N 24°21' E 118°10'0 0.0
2016-Feb-06 05:33N 24°21' E 118°10'0 0.0
2016-Feb-06 04:33N 24°21' E 118°10'0 0.0
2016-Feb-06 03:33N 24°21' E 118°10'0 0.1
2016-Feb-06 02:33N 24°21' E 118°10'0 0.0
2016-Feb-06 01:27N 24°21' E 118°10'0 0.1
2016-Feb-06 00:33N 24°21' E 118°10'5 4.9
2016-Feb-05 23:33N 24°20' E 118°15'  
2016-Jan-31 13:33N 24°42' E 119°06'57 7.1
2016-Jan-31 05:33N 24°30' E 118°04'2 2.4
2016-Jan-31 04:33N 24°33' E 118°05'0 0.1
2016-Jan-31 03:28N 24°33' E 118°05'0 0.0
2016-Jan-31 02:28N 24°33' E 118°05'0 0.1
2016-Jan-31 01:28N 24°33' E 118°05'0 0.1
2016-Jan-31 00:28N 24°33' E 118°05'0 0.0
2016-Jan-30 23:28N 24°33' E 118°05'0 0.0
2016-Jan-30 22:28N 24°33' E 118°05'0 0.0
2016-Jan-30 21:28N 24°33' E 118°05'0 0.0
2016-Jan-30 20:28N 24°33' E 118°05'0 0.0
2016-Jan-30 19:28N 24°33' E 118°05'0 0.0
2016-Jan-30 18:28N 24°33' E 118°05'0 0.1
2016-Jan-30 17:28N 24°33' E 118°05'0 0.0
2016-Jan-30 16:28N 24°33' E 118°05'0 0.0
2016-Jan-30 15:28N 24°33' E 118°05'0 0.0
2016-Jan-30 14:22N 24°33' E 118°05'0 0.1
2016-Jan-30 13:22N 24°33' E 118°05'0 0.0
2016-Jan-30 12:04N 24°33' E 118°05'0 0.0
2016-Jan-30 10:28N 24°33' E 118°05'0 0.0
2016-Jan-30 09:16N 24°33' E 118°05'0 0.0
2016-Jan-30 08:28N 24°33' E 118°05'0 0.0
2016-Jan-30 07:28N 24°33' E 118°05'0 0.0
2016-Jan-30 04:04N 24°33' E 118°05'0 0.0
2016-Jan-30 03:33N 24°33' E 118°05'7 7.1
2016-Jan-30 02:33N 24°25' E 118°04'1110.4
2016-Jan-30 01:33N 24°19' E 118°14'0 0.1
2016-Jan-29 20:23N 24°20' E 118°14'0 0.0
2016-Jan-29 17:11N 24°20' E 118°14'0 0.1
2016-Jan-29 16:17N 24°20' E 118°14'0 0.1
2016-Jan-29 15:29N 24°20' E 118°14'  
Track history (hours):
 
Tides and Currents Weather Stations Pressure Air Temp Water Temp Dewpoint Dewpoint Depression Visibility Wind Speed Wind Dir Waves Ship Positions

Long Hua

Last reported at 2016-Feb-06 22:33 UTC. Time now 2016-Feb-06 23:24 UTC.
Position N 24°21' E 118°10'.

Length 180 m; draft 6 m.

MMSI: 477622800.

Date/timePositionNaut miles runAvg speedWind from/ knotsBaromVisibWave heightAir tempDewpointWater temp
2016-Feb-06 22:33N 24°21' E 118°10'0 0.1
2016-Feb-06 21:27N 24°21' E 118°10'0 0.0
2016-Feb-06 20:33N 24°21' E 118°10'0 0.0
2016-Feb-06 19:15N 24°21' E 118°10'0 0.0
2016-Feb-06 18:33N 24°21' E 118°10'0 0.0
2016-Feb-06 17:21N 24°21' E 118°10'0 0.0
2016-Feb-06 16:33N 24°21' E 118°10'0 0.1
2016-Feb-06 15:33N 24°21' E 118°10'0 0.0
2016-Feb-06 09:21N 24°21' E 118°10'0 0.0
2016-Feb-06 08:33N 24°21' E 118°10'0 0.0
2016-Feb-06 07:21N 24°21' E 118°10'0 0.0
2016-Feb-06 05:33N 24°21' E 118°10'0 0.0
2016-Feb-06 04:33N 24°21' E 118°10'0 0.0
2016-Feb-06 03:33N 24°21' E 118°10'0 0.1
2016-Feb-06 02:33N 24°21' E 118°10'0 0.0
2016-Feb-06 01:27N 24°21' E 118°10'0 0.1
2016-Feb-06 00:33N 24°21' E 118°10'5 4.9
2016-Feb-05 23:33N 24°20' E 118°15'  
2016-Jan-31 13:33N 24°42' E 119°06'57 7.1
2016-Jan-31 05:33N 24°30' E 118°04'2 2.4
2016-Jan-31 04:33N 24°33' E 118°05'0 0.1
2016-Jan-31 03:28N 24°33' E 118°05'0 0.0
2016-Jan-31 02:28N 24°33' E 118°05'0 0.1
2016-Jan-31 01:28N 24°33' E 118°05'0 0.1
2016-Jan-31 00:28N 24°33' E 118°05'0 0.0
2016-Jan-30 23:28N 24°33' E 118°05'0 0.0
2016-Jan-30 22:28N 24°33' E 118°05'0 0.0
2016-Jan-30 21:28N 24°33' E 118°05'0 0.0
2016-Jan-30 20:28N 24°33' E 118°05'0 0.0
2016-Jan-30 19:28N 24°33' E 118°05'0 0.0
2016-Jan-30 18:28N 24°33' E 118°05'0 0.1
2016-Jan-30 17:28N 24°33' E 118°05'0 0.0
2016-Jan-30 16:28N 24°33' E 118°05'0 0.0
2016-Jan-30 15:28N 24°33' E 118°05'0 0.0
2016-Jan-30 14:22N 24°33' E 118°05'0 0.1
2016-Jan-30 13:22N 24°33' E 118°05'0 0.0
2016-Jan-30 12:04N 24°33' E 118°05'0 0.0
2016-Jan-30 10:28N 24°33' E 118°05'0 0.0
2016-Jan-30 09:16N 24°33' E 118°05'0 0.0
2016-Jan-30 08:28N 24°33' E 118°05'0 0.0
2016-Jan-30 07:28N 24°33' E 118°05'0 0.0
2016-Jan-30 04:04N 24°33' E 118°05'0 0.0
2016-Jan-30 03:33N 24°33' E 118°05'7 7.1
2016-Jan-30 02:33N 24°25' E 118°04'1110.4
2016-Jan-30 01:33N 24°19' E 118°14'0 0.1
2016-Jan-29 20:23N 24°20' E 118°14'0 0.0
2016-Jan-29 17:11N 24°20' E 118°14'0 0.1
2016-Jan-29 16:17N 24°20' E 118°14'0 0.1
2016-Jan-29 15:29N 24°20' E 118°14'  

Dump ship's entire track history